Waltham Station, Canada
Current Conditions -  °F | °C
As of 3:00 PM on Thursday 30 Oct 2014 (Local Time) from CYWA Reporting Station
Overcast Overcast  
Wind Chill: 37°   Ceiling: 3800
Heat Index: 41°   Visibility: 9mi
Dew Point: 23°   Wind: 6mph
Humidity: 49%   Direction: 290°WNW
Pressure: 30.02"   Gusts: NA
Location:  45.91°N, 76.89°W
Report Text: CYWA 301900Z AUTO 29005KT 270V340 9SM OVC038 05/M05 A3002 RMKSLP171
Loading
Personal Weather Stations






























Interactive Weather Map
Tropical Storm Tracking
New forecast layout! Learn more

10-Day Weather Forecast

Advertisements
Track Severe Weather on mobile